MHLC/LCE METAR and TAF weather

Enter ICAO airport designator
Station Type Date Time Source
MHLC METAR 2022/01/29 02:00 UTC NOAA

MHLC 290200Z 00000KT 9999 FEW030 SCT070 23/22 Q1017 A3003 NOSIG


Station Type Date Time Source
MHLC Decoded METAR 2022/01/29 02:00 UTC NOAA

La Ceiba Airport , Honduras (MHLC) 15-44N 086-52W 26M
Jan 28, 2022 - 09:00 PM EST / 2022.01.29 0200 UTC
Wind: Calm:0
Visibility: greater than 7 mile(s):0
Sky conditions: partly cloudy
Temperature: 73 F (23 C)
Dew Point: 71 F (22 C)
Relative Humidity: 94%
Pressure (altimeter): 30.03 in. Hg (1016 hPa)
ob: MHLC 290200Z 00000KT 9999 FEW030 SCT070 23/22 Q1017 A3003 NOSIG
cycle: 2

Station Type Date Time Source
MHLC TAF 2022/01/28 18:10 UTC NOAA

TAF MHLC 281700Z 2818/2918 36006KT 9999 SCT030TCU TX31/2820Z TN21/2912Z
BECMG 2900/2901 VRB02KT FEW030
BECMG 2914/2916 21006KT 8000 VCSH SCT030TCU BKN070

Example: see airport list